sensor_id;sensor_type;location;lat;lon;timestamp;pressure;altitude;pressure_sealevel;temperature;humidity
50087;BME280;35967;50.718;7.050;2023-07-31T00:09:12;100460.09;;;18.26;86.87
50087;BME280;35967;50.718;7.050;2023-07-31T00:19:16;100443.72;;;18.24;87.76
50087;BME280;35967;50.718;7.050;2023-07-31T00:29:19;100451.63;;;18.22;87.60
50087;BME280;35967;50.718;7.050;2023-07-31T00:39:24;100442.94;;;18.22;88.40
50087;BME280;35967;50.718;7.050;2023-07-31T00:49:27;100455.41;;;18.17;89.16
50087;BME280;35967;50.718;7.050;2023-07-31T00:59:32;100457.09;;;18.18;90.02
50087;BME280;35967;50.718;7.050;2023-07-31T01:09:40;100445.06;;;18.15;90.52
50087;BME280;35967;50.718;7.050;2023-07-31T01:19:48;100434.38;;;18.20;92.14
50087;BME280;35967;50.718;7.050;2023-07-31T01:29:56;100432.78;;;18.17;95.20
50087;BME280;35967;50.718;7.050;2023-07-31T01:40:05;100425.91;;;18.16;95.74
50087;BME280;35967;50.718;7.050;2023-07-31T01:50:10;100431.81;;;17.88;96.89
50087;BME280;35967;50.718;7.050;2023-07-31T02:00:14;100421.66;;;17.83;97.56
50087;BME280;35967;50.718;7.050;2023-07-31T02:10:20;100408.31;;;17.89;95.69
50087;BME280;35967;50.718;7.050;2023-07-31T02:20:24;100396.69;;;17.95;94.99
50087;BME280;35967;50.718;7.050;2023-07-31T02:30:28;100390.97;;;18.04;94.00
50087;BME280;35967;50.718;7.050;2023-07-31T02:40:31;100378.72;;;18.06;92.52
50087;BME280;35967;50.718;7.050;2023-07-31T02:50:36;100367.91;;;17.98;91.20
50087;BME280;35967;50.718;7.050;2023-07-31T03:00:42;100372.75;;;18.04;89.92
50087;BME280;35967;50.718;7.050;2023-07-31T03:10:47;100356.97;;;18.07;89.40
50087;BME280;35967;50.718;7.050;2023-07-31T03:20:50;100353.22;;;18.11;89.05
50087;BME280;35967;50.718;7.050;2023-07-31T03:30:55;100343.75;;;18.10;87.99
50087;BME280;35967;50.718;7.050;2023-07-31T03:40:58;100333.03;;;18.15;88.07
50087;BME280;35967;50.718;7.050;2023-07-31T03:51:02;100322.56;;;18.17;87.26
50087;BME280;35967;50.718;7.050;2023-07-31T04:01:06;100315.28;;;18.22;86.49
50087;BME280;35967;50.718;7.050;2023-07-31T04:11:10;100305.91;;;18.19;86.59
50087;BME280;35967;50.718;7.050;2023-07-31T04:21:14;100309.44;;;18.18;86.20
50087;BME280;35967;50.718;7.050;2023-07-31T04:31:18;100300.31;;;18.25;86.63
50087;BME280;35967;50.718;7.050;2023-07-31T04:41:21;100309.53;;;18.31;85.82
50087;BME280;35967;50.718;7.050;2023-07-31T04:51:26;100300.25;;;18.41;85.28
50087;BME280;35967;50.718;7.050;2023-07-31T05:01:29;100295.09;;;18.40;85.66
50087;BME280;35967;50.718;7.050;2023-07-31T05:11:34;100279.94;;;18.47;85.34
50087;BME280;35967;50.718;7.050;2023-07-31T05:21:37;100277.03;;;18.51;85.89
50087;BME280;35967;50.718;7.050;2023-07-31T05:31:42;100268.00;;;18.71;84.95
50087;BME280;35967;50.718;7.050;2023-07-31T05:41:45;100266.97;;;18.59;85.66
50087;BME280;35967;50.718;7.050;2023-07-31T05:51:51;100227.38;;;18.67;86.39
50087;BME280;35967;50.718;7.050;2023-07-31T06:01:54;100226.75;;;18.64;86.14
50087;BME280;35967;50.718;7.050;2023-07-31T06:11:58;100222.97;;;18.55;91.68
50087;BME280;35967;50.718;7.050;2023-07-31T06:22:01;100229.72;;;18.01;98.65
50087;BME280;35967;50.718;7.050;2023-07-31T06:32:06;100213.84;;;17.75;100.00
50087;BME280;35967;50.718;7.050;2023-07-31T06:42:10;100209.94;;;17.68;100.00
50087;BME280;35967;50.718;7.050;2023-07-31T06:52:14;100210.69;;;17.85;100.00
50087;BME280;35967;50.718;7.050;2023-07-31T07:02:17;100208.59;;;18.06;100.00
50087;BME280;35967;50.718;7.050;2023-07-31T07:12:22;100194.47;;;18.52;100.00
50087;BME280;35967;50.718;7.050;2023-07-31T07:22:25;100187.16;;;18.71;96.82
50087;BME280;35967;50.718;7.050;2023-07-31T07:32:30;100188.59;;;18.63;96.77
50087;BME280;35967;50.718;7.050;2023-07-31T07:42:33;100191.00;;;18.24;97.42
50087;BME280;35967;50.718;7.050;2023-07-31T07:52:38;100200.72;;;17.77;100.00
50087;BME280;35967;50.718;7.050;2023-07-31T08:02:41;100198.63;;;17.39;100.00
50087;BME280;35967;50.718;7.050;2023-07-31T08:12:45;100189.81;;;17.56;100.00
50087;BME280;35967;50.718;7.050;2023-07-31T08:22:48;100184.00;;;17.81;100.00
50087;BME280;35967;50.718;7.050;2023-07-31T08:32:53;100176.41;;;17.47;100.00
50087;BME280;35967;50.718;7.050;2023-07-31T08:42:56;100156.47;;;17.48;100.00
50087;BME280;35967;50.718;7.050;2023-07-31T08:53:05;100142.16;;;17.70;100.00
50087;BME280;35967;50.718;7.050;2023-07-31T09:03:10;100152.56;;;17.70;100.00
50087;BME280;35967;50.718;7.050;2023-07-31T09:13:17;100148.31;;;17.97;100.00
50087;BME280;35967;50.718;7.050;2023-07-31T09:23:20;100154.81;;;17.90;100.00
50087;BME280;35967;50.718;7.050;2023-07-31T09:33:25;100147.38;;;18.13;100.00
50087;BME280;35967;50.718;7.050;2023-07-31T09:43:28;100140.09;;;18.18;100.00
50087;BME280;35967;50.718;7.050;2023-07-31T09:53:32;100127.25;;;18.29;100.00
50087;BME280;35967;50.718;7.050;2023-07-31T10:03:36;100113.63;;;18.66;97.89
50087;BME280;35967;50.718;7.050;2023-07-31T10:13:42;100107.19;;;19.38;96.49
50087;BME280;35967;50.718;7.050;2023-07-31T10:23:46;100086.09;;;19.54;87.62
50087;BME280;35967;50.718;7.050;2023-07-31T10:33:52;100083.72;;;20.38;80.54
50087;BME280;35967;50.718;7.050;2023-07-31T10:43:58;100070.22;;;20.56;79.38
50087;BME280;35967;50.718;7.050;2023-07-31T10:54:12;100083.78;;;20.85;76.73
50087;BME280;35967;50.718;7.050;2023-07-31T11:04:21;100089.63;;;20.64;75.91
50087;BME280;35967;50.718;7.050;2023-07-31T11:14:26;100094.38;;;20.84;75.16
50087;BME280;35967;50.718;7.050;2023-07-31T11:24:29;100081.91;;;20.63;76.11
50087;BME280;35967;50.718;7.050;2023-07-31T11:34:50;100121.03;;;19.77;94.94
50087;BME280;35967;50.718;7.050;2023-07-31T11:44:53;100088.47;;;19.70;97.31
50087;BME280;35967;50.718;7.050;2023-07-31T11:54:59;100063.50;;;20.64;92.36
50087;BME280;35967;50.718;7.050;2023-07-31T12:05:03;100040.13;;;23.07;72.97
50087;BME280;35967;50.718;7.050;2023-07-31T12:15:15;100031.09;;;24.51;64.53
50087;BME280;35967;50.718;7.050;2023-07-31T12:25:18;100034.28;;;24.06;64.30
50087;BME280;35967;50.718;7.050;2023-07-31T12:35:23;100046.25;;;22.86;67.67
50087;BME280;35967;50.718;7.050;2023-07-31T12:45:26;100043.59;;;22.32;70.40
50087;BME280;35967;50.718;7.050;2023-07-31T12:55:30;100042.56;;;21.80;72.75
50087;BME280;35967;50.718;7.050;2023-07-31T13:05:34;100025.47;;;21.64;71.86
50087;BME280;35967;50.718;7.050;2023-07-31T13:15:39;100020.31;;;21.74;71.94
50087;BME280;35967;50.718;7.050;2023-07-31T13:25:42;99997.81;;;21.71;72.09
50087;BME280;35967;50.718;7.050;2023-07-31T13:35:46;99992.81;;;21.80;71.27
50087;BME280;35967;50.718;7.050;2023-07-31T13:45:50;99978.69;;;21.59;71.21
50087;BME280;35967;50.718;7.050;2023-07-31T13:55:55;99992.78;;;21.91;69.87
50087;BME280;35967;50.718;7.050;2023-07-31T14:05:59;99975.81;;;22.06;69.53
50087;BME280;35967;50.718;7.050;2023-07-31T14:16:03;99984.50;;;22.07;70.40
50087;BME280;35967;50.718;7.050;2023-07-31T14:26:07;99982.13;;;21.37;71.26
50087;BME280;35967;50.718;7.050;2023-07-31T14:36:11;99988.19;;;21.26;73.48
50087;BME280;35967;50.718;7.050;2023-07-31T14:46:14;99990.47;;;21.08;72.93
50087;BME280;35967;50.718;7.050;2023-07-31T14:56:19;99983.91;;;20.91;74.25
50087;BME280;35967;50.718;7.050;2023-07-31T15:06:22;99981.03;;;20.83;75.26
50087;BME280;35967;50.718;7.050;2023-07-31T15:16:26;99964.41;;;20.73;74.01
50087;BME280;35967;50.718;7.050;2023-07-31T15:26:30;99960.19;;;20.59;75.19
50087;BME280;35967;50.718;7.050;2023-07-31T15:36:35;99926.53;;;20.54;74.98
50087;BME280;35967;50.718;7.050;2023-07-31T15:46:38;99908.88;;;20.80;75.05
50087;BME280;35967;50.718;7.050;2023-07-31T15:56:43;99889.81;;;20.67;74.98
50087;BME280;35967;50.718;7.050;2023-07-31T16:06:47;99893.22;;;20.45;76.36
50087;BME280;35967;50.718;7.050;2023-07-31T16:16:51;99894.06;;;20.34;82.62
50087;BME280;35967;50.718;7.050;2023-07-31T16:26:54;99893.28;;;18.99;100.00
50087;BME280;35967;50.718;7.050;2023-07-31T16:36:59;99871.00;;;18.31;100.00
50087;BME280;35967;50.718;7.050;2023-07-31T16:47:02;99848.53;;;18.15;100.00
50087;BME280;35967;50.718;7.050;2023-07-31T16:57:06;99837.47;;;17.86;100.00
50087;BME280;35967;50.718;7.050;2023-07-31T17:07:10;99823.09;;;17.93;100.00
50087;BME280;35967;50.718;7.050;2023-07-31T17:17:14;99799.47;;;17.96;100.00
50087;BME280;35967;50.718;7.050;2023-07-31T17:27:18;99781.78;;;18.01;100.00
50087;BME280;35967;50.718;7.050;2023-07-31T17:37:22;99764.69;;;18.10;100.00
50087;BME280;35967;50.718;7.050;2023-07-31T17:47:25;99748.44;;;18.06;100.00
50087;BME280;35967;50.718;7.050;2023-07-31T17:57:30;99748.56;;;18.05;100.00
50087;BME280;35967;50.718;7.050;2023-07-31T18:07:33;99730.38;;;17.64;100.00
50087;BME280;35967;50.718;7.050;2023-07-31T18:17:38;99730.25;;;17.53;100.00
50087;BME280;35967;50.718;7.050;2023-07-31T18:27:41;99736.53;;;17.23;100.00
50087;BME280;35967;50.718;7.050;2023-07-31T18:37:45;99722.06;;;17.19;100.00
50087;BME280;35967;50.718;7.050;2023-07-31T18:47:48;99706.72;;;17.01;100.00
50087;BME280;35967;50.718;7.050;2023-07-31T18:57:52;99701.88;;;17.10;100.00
50087;BME280;35967;50.718;7.050;2023-07-31T19:07:56;99694.25;;;17.07;100.00
50087;BME280;35967;50.718;7.050;2023-07-31T19:18:02;99673.88;;;17.00;100.00
50087;BME280;35967;50.718;7.050;2023-07-31T19:28:06;99662.63;;;17.00;100.00
50087;BME280;35967;50.718;7.050;2023-07-31T19:38:10;99645.59;;;16.81;100.00
50087;BME280;35967;50.718;7.050;2023-07-31T19:48:13;99635.78;;;16.72;100.00
50087;BME280;35967;50.718;7.050;2023-07-31T19:58:20;99589.31;;;16.67;100.00
50087;BME280;35967;50.718;7.050;2023-07-31T20:08:23;99566.81;;;16.53;100.00
50087;BME280;35967;50.718;7.050;2023-07-31T20:18:27;99584.31;;;16.64;100.00
50087;BME280;35967;50.718;7.050;2023-07-31T20:28:30;99558.75;;;16.71;100.00
50087;BME280;35967;50.718;7.050;2023-07-31T20:38:35;99561.06;;;16.76;100.00
50087;BME280;35967;50.718;7.050;2023-07-31T20:48:38;99524.88;;;16.85;100.00
50087;BME280;35967;50.718;7.050;2023-07-31T20:58:42;99551.69;;;17.00;100.00
50087;BME280;35967;50.718;7.050;2023-07-31T21:08:45;99541.28;;;17.13;100.00
50087;BME280;35967;50.718;7.050;2023-07-31T21:18:49;99513.69;;;17.11;100.00
50087;BME280;35967;50.718;7.050;2023-07-31T21:28:52;99512.25;;;17.19;100.00
50087;BME280;35967;50.718;7.050;2023-07-31T21:38:57;99480.84;;;17.10;100.00
50087;BME280;35967;50.718;7.050;2023-07-31T21:49:00;99444.97;;;17.15;100.00
50087;BME280;35967;50.718;7.050;2023-07-31T21:59:04;99434.06;;;17.10;100.00
50087;BME280;35967;50.718;7.050;2023-07-31T22:09:08;99411.59;;;16.96;100.00
50087;BME280;35967;50.718;7.050;2023-07-31T22:19:12;99388.91;;;16.85;100.00
50087;BME280;35967;50.718;7.050;2023-07-31T22:29:16;99369.38;;;16.66;100.00
50087;BME280;35967;50.718;7.050;2023-07-31T22:39:20;99326.78;;;16.56;100.00
50087;BME280;35967;50.718;7.050;2023-07-31T22:49:23;99247.94;;;16.44;100.00
50087;BME280;35967;50.718;7.050;2023-07-31T22:59:28;99272.66;;;16.50;100.00
50087;BME280;35967;50.718;7.050;2023-07-31T23:09:31;99244.41;;;16.45;100.00
50087;BME280;35967;50.718;7.050;2023-07-31T23:19:35;99245.75;;;16.51;100.00
50087;BME280;35967;50.718;7.050;2023-07-31T23:29:38;99220.22;;;16.45;100.00
50087;BME280;35967;50.718;7.050;2023-07-31T23:39:43;99220.22;;;16.45;100.00
50087;BME280;35967;50.718;7.050;2023-07-31T23:49:46;99197.94;;;16.53;100.00
50087;BME280;35967;50.718;7.050;2023-07-31T23:59:50;99184.13;;;16.53;100.00
